Time;durP1;ratioP1;P1;durP2;ratioP2;P2;SDS_P1;SDS_P2;PMS_P1;PMS_P2;Temp;Humidity;BMP_temperature;BMP_pressure;BME280_temperature;BME280_humidity;BME280_pressure;Samples;Min_cycle;Max_cycle;Signal;HPM_P1;HPM_P2
2022/03/19 00:02:05;;;;;;;30.80;21.50;;;8.20;99.90;;;;;;5032950;28;20465;-43
2022/03/19 00:04:32;;;;;;;25.70;20.80;;;8.10;99.90;;;;;;5032550;28;20533;-44
2022/03/19 00:06:59;;;;;;;25.97;19.70;;;8.00;99.90;;;;;;5032894;28;20495;-43
2022/03/19 00:09:26;;;;;;;29.40;21.23;;;8.00;99.90;;;;;;5032167;28;20530;-43
2022/03/19 00:11:54;;;;;;;29.13;19.87;;;8.00;99.90;;;;;;5032582;28;20442;-43
2022/03/19 00:14:21;;;;;;;27.23;19.63;;;7.90;99.90;;;;;;5032161;28;20610;-43
2022/03/19 00:16:49;;;;;;;24.70;19.70;;;8.00;99.90;;;;;;5032469;28;20478;-43
2022/03/19 00:19:16;;;;;;;24.67;20.30;;;7.90;99.90;;;;;;5032204;28;20868;-43
2022/03/19 00:21:43;;;;;;;30.47;21.70;;;7.80;99.90;;;;;;5032559;28;20469;-43
2022/03/19 00:24:10;;;;;;;29.70;22.07;;;7.70;99.90;;;;;;5032386;28;20532;-43
2022/03/19 00:26:37;;;;;;;29.50;21.97;;;7.60;99.90;;;;;;5032174;28;20953;-43
2022/03/19 00:29:04;;;;;;;31.83;22.87;;;7.60;99.90;;;;;;5032211;28;20470;-43
2022/03/19 00:31:31;;;;;;;31.93;23.33;;;7.50;99.90;;;;;;5032329;28;20453;-43
2022/03/19 00:34:00;;;;;;;28.13;21.77;;;7.50;99.90;;;;;;5032104;28;20885;-43
2022/03/19 00:36:27;;;;;;;29.50;21.60;;;7.50;99.90;;;;;;5031917;28;20615;-43
2022/03/19 00:38:54;;;;;;;28.07;22.60;;;7.60;99.90;;;;;;5031859;28;20911;-43
2022/03/19 00:41:21;;;;;;;28.10;22.00;;;7.70;99.90;;;;;;5031857;28;20442;-43
2022/03/19 00:43:49;;;;;;;31.60;21.23;;;7.70;99.90;;;;;;5032098;28;20474;-43
2022/03/19 00:46:18;;;;;;;29.57;21.20;;;7.80;99.90;;;;;;5031859;28;20558;-43
2022/03/19 00:48:45;;;;;;;26.17;20.33;;;7.80;99.90;;;;;;5031779;28;21002;-43
2022/03/19 00:51:13;;;;;;;34.07;24.27;;;7.80;99.90;;;;;;5031294;28;20481;-43
2022/03/19 00:53:40;;;;;;;28.00;21.03;;;7.90;99.90;;;;;;5031956;28;20837;-43
2022/03/19 00:56:07;;;;;;;27.67;20.80;;;7.90;99.90;;;;;;5031017;28;20904;-43
2022/03/19 00:58:34;;;;;;;30.60;20.23;;;7.80;99.90;;;;;;5031572;28;20933;-43
2022/03/19 01:01:01;;;;;;;24.93;20.30;;;7.70;99.90;;;;;;5031462;28;20477;-43
2022/03/19 01:03:28;;;;;;;26.07;20.10;;;7.80;99.90;;;;;;5031599;28;20927;-43
2022/03/19 01:05:55;;;;;;;28.50;20.80;;;7.90;99.90;;;;;;5081082;22;20526;-46
2022/03/19 01:08:24;;;;;;;26.03;20.80;;;8.00;99.90;;;;;;5012048;28;20859;-45
2022/03/19 01:10:51;;;;;;;25.63;20.83;;;8.00;99.90;;;;;;5011050;28;20542;-46
2022/03/19 01:13:18;;;;;;;29.20;20.30;;;8.00;99.90;;;;;;5011648;28;20445;-45
2022/03/19 01:15:45;;;;;;;28.93;20.87;;;8.00;99.90;;;;;;5011491;28;20502;-46
2022/03/19 01:18:12;;;;;;;23.93;19.27;;;8.10;99.90;;;;;;5012030;28;20903;-46
2022/03/19 01:20:39;;;;;;;28.70;19.10;;;8.00;99.90;;;;;;5011360;28;20490;-45
2022/03/19 01:23:06;;;;;;;25.53;19.57;;;8.00;99.90;;;;;;5011964;28;20454;-45
2022/03/19 01:25:34;;;;;;;26.83;20.43;;;8.00;99.90;;;;;;5011587;28;21011;-45
2022/03/19 01:28:01;;;;;;;28.60;21.80;;;7.90;99.90;;;;;;5011617;28;20467;-45
2022/03/19 01:30:28;;;;;;;24.37;21.20;;;7.80;99.90;;;;;;5011301;28;20542;-46
2022/03/19 01:32:55;;;;;;;29.53;21.20;;;7.90;99.90;;;;;;5011697;28;20479;-45
2022/03/19 01:35:22;;;;;;;30.17;21.37;;;7.90;99.90;;;;;;5011620;28;20546;-45
2022/03/19 01:37:49;;;;;;;28.63;21.00;;;7.80;99.90;;;;;;5011602;28;20507;-45
2022/03/19 01:40:18;;;;;;;27.10;20.63;;;7.70;99.90;;;;;;5011096;28;20539;-46
2022/03/19 01:42:47;;;;;;;27.37;20.23;;;7.40;99.90;;;;;;5011204;28;20526;-48
2022/03/19 01:45:16;;;;;;;31.43;21.50;;;7.30;99.90;;;;;;5011491;28;20895;-45
2022/03/19 01:47:44;;;;;;;27.10;20.37;;;7.30;99.90;;;;;;5011221;28;20449;-48
2022/03/19 01:50:12;;;;;;;28.80;21.03;;;7.30;99.90;;;;;;5011318;28;20526;-45
2022/03/19 01:52:39;;;;;;;31.30;21.60;;;7.30;99.90;;;;;;5011241;28;20531;-45
2022/03/19 01:55:08;;;;;;;30.30;23.07;;;7.10;99.90;;;;;;5010763;28;20482;-45
2022/03/19 01:57:38;;;;;;;30.50;23.27;;;7.20;99.90;;;;;;5011259;28;20521;-45
2022/03/19 02:00:09;;;;;;;28.33;22.00;;;7.10;99.90;;;;;;5011023;28;20498;-46
2022/03/19 02:02:37;;;;;;;31.87;21.77;;;6.90;99.90;;;;;;5011141;28;20678;-47
2022/03/19 02:05:04;;;;;;;27.27;21.00;;;6.70;99.90;;;;;;5011211;28;20526;-46
2022/03/19 02:07:32;;;;;;;31.50;22.43;;;6.50;99.90;;;;;;5012300;28;20454;-45
2022/03/19 02:10:00;;;;;;;27.67;21.43;;;6.40;99.90;;;;;;5014920;28;20439;-46
2022/03/19 02:12:26;;;;;;;28.10;21.13;;;6.30;99.90;;;;;;5015082;28;20516;-45
2022/03/19 02:14:54;;;;;;;34.70;23.00;;;6.30;99.90;;;;;;5015132;28;20538;-46
2022/03/19 02:17:24;;;;;;;30.47;22.60;;;6.20;99.90;;;;;;5015167;28;20556;-46
2022/03/19 02:19:52;;;;;;;30.00;22.87;;;6.30;99.90;;;;;;5015014;28;20975;-45
2022/03/19 02:22:20;;;;;;;27.40;22.50;;;6.30;99.90;;;;;;5015159;28;20527;-45
2022/03/19 02:27:36;;;;;;;32.77;22.50;;;6.30;99.90;;;;;;5014790;28;21070;-45
2022/03/19 02:30:05;;;;;;;34.33;21.70;;;6.30;99.90;;;;;;5014669;28;20482;-46
2022/03/19 02:32:32;;;;;;;32.07;21.33;;;6.20;99.90;;;;;;5014686;28;20522;-44
2022/03/19 02:34:59;;;;;;;32.67;23.07;;;6.30;99.90;;;;;;5015045;28;20474;-45
2022/03/19 02:37:26;;;;;;;30.10;21.93;;;6.40;99.90;;;;;;5014950;28;20482;-45
2022/03/19 02:39:55;;;;;;;34.03;22.67;;;6.50;99.90;;;;;;5014549;28;21074;-46
2022/03/19 02:42:22;;;;;;;29.00;21.00;;;6.60;99.90;;;;;;5014827;28;20892;-45
2022/03/19 02:44:50;;;;;;;32.50;23.00;;;6.50;99.90;;;;;;5014864;28;20526;-48
2022/03/19 02:47:16;;;;;;;27.13;19.83;;;6.30;99.90;;;;;;5014643;28;20788;-45
2022/03/19 02:49:43;;;;;;;29.27;21.20;;;6.10;99.90;;;;;;5014534;28;20971;-45
2022/03/19 02:52:10;;;;;;;25.30;20.77;;;6.00;99.90;;;;;;5014340;28;20486;-45
2022/03/19 02:54:38;;;;;;;32.13;22.17;;;5.80;99.90;;;;;;5014412;28;20474;-47
2022/03/19 02:57:06;;;;;;;31.77;21.50;;;5.70;99.90;;;;;;5014727;28;20562;-45
2022/03/19 02:59:35;;;;;;;32.30;21.37;;;5.60;99.90;;;;;;5014103;28;20562;-45
2022/03/19 03:02:03;;;;;;;32.63;23.20;;;5.50;99.90;;;;;;5014333;28;20454;-48
2022/03/19 03:04:31;;;;;;;29.10;20.50;;;5.50;99.90;;;;;;5014457;28;20991;-46
2022/03/19 03:07:01;;;;;;;30.70;20.77;;;5.50;99.90;;;;;;5014424;28;20554;-45
2022/03/19 03:09:30;;;;;;;32.50;22.60;;;5.50;99.90;;;;;;5014260;28;20504;-47
2022/03/19 03:12:01;;;;;;;32.90;23.17;;;5.40;99.90;;;;;;5014121;28;20530;-45
2022/03/19 03:14:30;;;;;;;33.33;21.17;;;5.50;99.90;;;;;;5014129;28;20439;-45
2022/03/19 03:17:01;;;;;;;25.70;20.00;;;5.40;99.90;;;;;;5014097;28;20502;-47
2022/03/19 03:19:28;;;;;;;31.83;22.73;;;5.20;99.90;;;;;;5013216;28;20482;-45
2022/03/19 03:21:55;;;;;;;31.53;23.43;;;5.30;99.90;;;;;;5014038;28;21096;-45
2022/03/19 03:24:22;;;;;;;34.73;22.00;;;5.30;99.90;;;;;;5014293;28;20537;-45
2022/03/19 03:26:50;;;;;;;28.97;22.33;;;5.40;99.90;;;;;;5013868;28;20502;-47
2022/03/19 03:29:17;;;;;;;31.37;22.13;;;5.50;99.90;;;;;;5013811;28;20529;-45
2022/03/19 03:31:45;;;;;;;28.40;21.27;;;5.60;99.90;;;;;;5013734;28;20967;-47
2022/03/19 03:34:12;;;;;;;35.87;22.43;;;5.80;99.90;;;;;;5013679;28;20478;-45
2022/03/19 03:36:39;;;;;;;37.30;22.73;;;5.90;99.90;;;;;;5013700;28;20888;-45
2022/03/19 03:39:06;;;;;;;30.77;21.77;;;6.00;99.90;;;;;;5013853;28;20839;-45
2022/03/19 03:41:33;;;;;;;29.57;23.83;;;5.80;99.90;;;;;;5013874;28;20556;-45
2022/03/19 03:44:00;;;;;;;33.40;24.13;;;5.70;99.90;;;;;;5013746;28;20454;-45
2022/03/19 03:46:27;;;;;;;36.00;23.90;;;5.70;99.90;;;;;;5013739;28;20503;-46
2022/03/19 03:48:55;;;;;;;33.73;24.47;;;5.70;99.90;;;;;;5013309;28;20471;-47
2022/03/19 03:51:22;;;;;;;29.77;22.93;;;5.90;99.90;;;;;;5013275;28;20529;-45
2022/03/19 03:53:49;;;;;;;30.13;22.80;;;6.00;99.90;;;;;;5013294;28;20542;-47
2022/03/19 03:56:16;;;;;;;29.83;22.23;;;6.00;99.90;;;;;;5013663;28;20542;-45
2022/03/19 03:58:45;;;;;;;35.80;23.43;;;6.20;99.90;;;;;;5013161;28;20575;-47
2022/03/19 04:01:12;;;;;;;32.83;23.10;;;6.10;99.90;;;;;;5013094;28;20848;-45
2022/03/19 04:03:39;;;;;;;30.97;23.50;;;5.80;99.90;;;;;;5013309;28;20471;-41
2022/03/19 04:06:07;;;;;;;31.67;22.80;;;5.50;99.90;;;;;;5013005;28;20503;-46
2022/03/19 04:08:34;;;;;;;32.80;24.20;;;5.40;99.90;;;;;;5013187;28;20482;-45
2022/03/19 04:11:01;;;;;;;31.87;23.27;;;5.40;99.90;;;;;;5012838;28;20538;-45
2022/03/19 04:13:28;;;;;;;41.90;31.73;;;5.50;99.90;;;;;;5013194;28;20558;-45
2022/03/19 04:15:55;;;;;;;40.33;25.90;;;5.70;99.90;;;;;;5013202;28;20498;-45
2022/03/19 04:18:22;;;;;;;31.90;21.33;;;5.90;99.90;;;;;;5012931;28;20494;-45
2022/03/19 04:20:49;;;;;;;37.73;23.47;;;6.10;99.90;;;;;;5012803;28;20467;-47
2022/03/19 04:23:17;;;;;;;28.07;22.40;;;6.20;99.90;;;;;;5013069;28;20475;-45
2022/03/19 04:25:44;;;;;;;27.90;22.17;;;6.30;99.90;;;;;;5012685;28;20570;-45
2022/03/19 04:28:12;;;;;;;30.60;22.63;;;6.20;99.90;;;;;;5012826;28;20534;-49
2022/03/19 04:30:40;;;;;;;33.93;23.80;;;5.50;99.90;;;;;;5012072;28;20451;-45
2022/03/19 04:33:07;;;;;;;30.10;23.50;;;5.00;99.90;;;;;;5012567;28;20443;-45
2022/03/19 04:38:22;;;;;;;33.00;23.50;;;4.90;99.90;;;;;;5012612;28;20466;-41
2022/03/19 04:40:50;;;;;;;32.40;24.87;;;4.80;99.90;;;;;;5012686;28;20451;-45
2022/03/19 04:43:17;;;;;;;31.50;22.27;;;4.90;99.90;;;;;;5012726;28;20534;-45
2022/03/19 04:45:45;;;;;;;32.87;23.70;;;5.00;99.90;;;;;;5012533;28;20525;-45
2022/03/19 04:48:12;;;;;;;36.90;24.47;;;5.10;99.90;;;;;;5012456;28;20486;-46
2022/03/19 04:50:39;;;;;;;32.30;25.60;;;5.00;99.90;;;;;;5012021;28;20657;-47
2022/03/19 04:53:08;;;;;;;29.63;23.53;;;4.90;99.90;;;;;;5012452;28;20927;-45
2022/03/19 04:55:37;;;;;;;33.27;24.60;;;4.80;99.90;;;;;;5011947;28;20498;-45
2022/03/19 04:58:04;;;;;;;38.80;24.60;;;4.70;99.90;;;;;;5012564;28;20447;-45
2022/03/19 05:00:32;;;;;;;35.10;25.20;;;4.60;99.90;;;;;;5011890;28;20842;-48
2022/03/19 05:02:59;;;;;;;29.20;23.60;;;4.60;99.90;;;;;;5012266;28;20542;-45
2022/03/19 05:05:26;;;;;;;32.73;25.07;;;4.60;99.90;;;;;;5012009;28;20482;-45
2022/03/19 05:07:54;;;;;;;32.93;24.60;;;4.70;99.90;;;;;;5012199;28;20485;-45
2022/03/19 05:13:09;;;;;;;33.20;25.40;;;4.20;99.90;;;;;;5012370;28;20789;-45
2022/03/19 05:15:36;;;;;;;40.53;26.67;;;4.10;99.90;;;;;;5011694;28;20470;-45
2022/03/19 05:18:04;;;;;;;31.97;23.20;;;4.10;99.90;;;;;;5011830;28;20987;-45
2022/03/19 05:20:31;;;;;;;34.93;25.60;;;4.00;99.90;;;;;;5011894;28;20677;-46
2022/03/19 05:22:59;;;;;;;34.53;25.27;;;3.90;99.90;;;;;;5011733;28;20456;-45
2022/03/19 05:25:26;;;;;;;34.87;23.50;;;3.90;99.90;;;;;;5012003;28;20833;-45
2022/03/19 05:27:53;;;;;;;40.40;27.07;;;3.90;99.90;;;;;;5011853;28;20472;-45
2022/03/19 05:30:21;;;;;;;37.50;27.03;;;3.80;99.90;;;;;;5011490;28;20454;-45
2022/03/19 05:32:49;;;;;;;37.23;24.40;;;3.90;99.90;;;;;;5012076;28;20483;-45
2022/03/19 05:35:18;;;;;;;31.27;24.10;;;3.80;99.90;;;;;;5011791;28;20508;-47
2022/03/19 05:37:45;;;;;;;34.23;24.67;;;3.80;99.90;;;;;;5011701;28;20519;-45
2022/03/19 05:40:13;;;;;;;35.57;24.20;;;3.90;99.90;;;;;;5011466;28;20476;-45
2022/03/19 05:42:40;;;;;;;36.43;25.20;;;4.00;99.90;;;;;;5011395;28;21011;-45
2022/03/19 05:45:09;;;;;;;34.70;25.13;;;4.10;99.90;;;;;;5011616;28;20483;-45
2022/03/19 05:47:38;;;;;;;34.87;24.70;;;4.00;99.90;;;;;;5011756;28;20529;-47
2022/03/19 05:50:06;;;;;;;31.17;24.87;;;3.80;99.90;;;;;;5011536;28;20895;-45
2022/03/19 05:52:33;;;;;;;36.30;26.00;;;3.80;99.90;;;;;;5011644;28;20475;-46
2022/03/19 05:55:00;;;;;;;37.53;25.03;;;3.80;99.90;;;;;;5011012;28;20451;-45
2022/03/19 05:57:27;;;;;;;38.87;27.47;;;3.90;99.90;;;;;;5011622;28;20486;-45
2022/03/19 05:59:54;;;;;;;36.07;25.40;;;3.90;99.90;;;;;;5011099;28;20526;-45
2022/03/19 06:02:21;;;;;;;36.60;26.10;;;3.90;99.90;;;;;;5011508;28;20531;-45
2022/03/19 06:04:49;;;;;;;38.60;26.07;;;4.10;99.90;;;;;;5011323;28;20960;-46
2022/03/19 06:07:16;;;;;;;32.13;25.00;;;4.10;99.90;;;;;;5011467;28;20538;-46
2022/03/19 06:09:43;;;;;;;41.37;25.00;;;4.10;99.90;;;;;;5011412;28;20529;-45
2022/03/19 06:12:10;;;;;;;35.80;26.07;;;3.90;99.90;;;;;;5011243;28;20484;-48
2022/03/19 06:14:37;;;;;;;35.10;26.93;;;3.90;99.90;;;;;;5010979;28;20536;-45
2022/03/19 06:17:05;;;;;;;36.07;26.20;;;3.80;99.90;;;;;;5011307;28;20558;-45
2022/03/19 06:19:31;;;;;;;38.00;25.90;;;3.90;99.90;;;;;;5011114;28;20564;-45
2022/03/19 06:22:00;;;;;;;37.63;26.77;;;3.80;99.90;;;;;;5011288;28;20481;-47
2022/03/19 06:24:27;;;;;;;31.07;25.13;;;3.80;99.90;;;;;;5010946;28;20475;-45
2022/03/19 06:26:54;;;;;;;38.13;26.30;;;3.70;99.90;;;;;;5011476;28;20897;-45
2022/03/19 06:29:22;;;;;;;35.50;26.13;;;3.70;99.90;;;;;;5010989;28;20478;-46
2022/03/19 06:31:49;;;;;;;41.67;27.30;;;3.60;99.90;;;;;;5011259;28;20460;-44
2022/03/19 06:34:16;;;;;;;39.90;26.93;;;3.60;99.90;;;;;;5011175;28;20448;-45
2022/03/19 06:39:28;;;;;;;37.73;25.33;;;3.60;99.90;;;;;;5010908;28;20480;-46
2022/03/19 06:41:55;;;;;;;37.93;27.30;;;3.80;99.90;;;;;;5011189;28;20481;-45
2022/03/19 06:44:22;;;;;;;34.97;25.93;;;3.90;99.90;;;;;;5011122;28;20890;-44
2022/03/19 06:46:49;;;;;;;31.13;24.57;;;3.90;99.90;;;;;;5011069;28;20545;-45
2022/03/19 06:49:16;;;;;;;35.67;27.03;;;4.00;99.90;;;;;;5010580;28;20530;-47
2022/03/19 06:51:43;;;;;;;36.40;27.57;;;4.20;99.90;;;;;;5010704;28;20483;-45
2022/03/19 06:54:10;;;;;;;42.30;28.63;;;4.40;99.90;;;;;;5010947;28;20490;-46
2022/03/19 06:56:38;;;;;;;34.27;27.40;;;4.50;99.90;;;;;;5014489;28;20508;-47
2022/03/19 06:59:05;;;;;;;37.03;27.83;;;4.50;99.90;;;;;;5014218;28;21004;-46
2022/03/19 07:01:36;;;;;;;37.37;28.40;;;4.40;99.90;;;;;;5014575;28;20482;-45
2022/03/19 07:04:03;;;;;;;35.87;27.50;;;4.50;99.90;;;;;;5014398;28;20453;-46
2022/03/19 07:06:30;;;;;;;38.60;29.30;;;4.50;99.90;;;;;;5071997;22;20580;-44
2022/03/19 07:08:57;;;;;;;50.57;31.20;;;4.60;99.90;;;;;;5013865;28;20534;-49
2022/03/19 07:11:24;;;;;;;41.63;31.27;;;4.70;99.90;;;;;;5013832;28;20934;-44
2022/03/19 07:13:53;;;;;;;35.37;26.20;;;4.70;99.90;;;;;;5014181;28;20962;-47
2022/03/19 07:16:19;;;;;;;32.83;25.23;;;4.80;99.90;;;;;;5014230;28;20494;-45
2022/03/19 07:18:46;;;;;;;32.87;25.80;;;4.80;99.90;;;;;;5014206;28;20533;-45
2022/03/19 07:21:15;;;;;;;36.63;26.33;;;4.90;99.90;;;;;;5013795;28;20926;-45
2022/03/19 07:23:42;;;;;;;36.73;27.43;;;5.10;99.90;;;;;;5014239;28;20452;-44
2022/03/19 07:26:09;;;;;;;40.97;28.83;;;5.10;99.90;;;;;;5014270;28;20574;-45
2022/03/19 07:28:36;;;;;;;40.13;29.67;;;5.20;99.90;;;;;;5013787;28;20969;-44
2022/03/19 07:31:05;;;;;;;38.80;29.40;;;4.80;99.90;;;;;;5013483;28;20884;-45
2022/03/19 07:33:34;;;;;;;41.30;28.57;;;4.40;99.90;;;;;;5012295;28;20533;-44
2022/03/19 07:36:02;;;;;;;41.60;30.33;;;4.20;99.90;;;;;;5013408;28;20521;-44
2022/03/19 07:38:30;;;;;;;41.80;28.67;;;4.10;99.90;;;;;;5013824;28;20461;-45
2022/03/19 07:43:42;;;;;;;44.20;30.40;;;4.00;99.90;;;;;;5013802;28;20446;-45
2022/03/19 07:46:11;;;;;;;44.20;29.50;;;4.10;99.90;;;;;;5013404;28;20474;-45
2022/03/19 07:48:38;;;;;;;38.80;28.17;;;4.00;99.90;;;;;;5013738;28;20446;-47
2022/03/19 07:51:05;;;;;;;36.80;27.60;;;4.10;99.90;;;;;;5012758;28;20467;-45
2022/03/19 07:53:32;;;;;;;42.07;28.30;;;4.10;99.90;;;;;;5013544;28;20522;-48
2022/03/19 07:56:01;;;;;;;40.80;29.20;;;4.20;99.90;;;;;;5013399;28;20525;-44
2022/03/19 07:58:27;;;;;;;40.10;28.33;;;4.20;99.90;;;;;;5013389;28;20458;-47
2022/03/19 08:00:55;;;;;;;36.97;28.10;;;4.30;99.90;;;;;;5012853;28;21067;-45
2022/03/19 08:03:24;;;;;;;35.23;26.37;;;4.60;99.90;;;;;;5012978;28;20443;-45
2022/03/19 08:05:51;;;;;;;34.90;24.97;;;5.00;99.90;;;;;;5011351;28;20483;-44
2022/03/19 08:08:18;;;;;;;32.10;25.37;;;5.20;99.90;;;;;;5011993;28;20475;-45
2022/03/19 08:10:45;;;;;;;35.60;25.47;;;5.30;99.90;;;;;;5012637;28;20475;-45
2022/03/19 08:13:12;;;;;;;33.13;25.50;;;5.40;99.90;;;;;;5013038;28;20479;-46
2022/03/19 08:15:41;;;;;;;35.67;25.00;;;5.50;99.90;;;;;;5012471;28;20526;-44
2022/03/19 08:18:09;;;;;;;30.20;23.90;;;5.70;99.90;;;;;;5012880;28;20522;-46
2022/03/19 08:20:37;;;;;;;31.70;25.30;;;5.70;99.90;;;;;;5012869;28;20479;-45
2022/03/19 08:23:04;;;;;;;30.43;22.83;;;5.70;99.90;;;;;;5012728;28;20530;-48
2022/03/19 08:25:31;;;;;;;39.07;25.73;;;5.80;99.90;;;;;;5012944;28;20530;-44
2022/03/19 08:27:59;;;;;;;35.07;25.80;;;5.80;99.90;;;;;;5012658;28;20486;-45
2022/03/19 08:30:26;;;;;;;38.97;27.03;;;5.80;99.90;;;;;;5012555;28;20541;-45
2022/03/19 08:32:53;;;;;;;37.10;27.00;;;5.90;99.90;;;;;;5012583;28;20451;-47
2022/03/19 08:35:20;;;;;;;32.00;25.60;;;5.90;99.90;;;;;;5013081;28;20533;-45
2022/03/19 08:37:48;;;;;;;33.50;23.97;;;6.10;99.90;;;;;;5012909;28;20845;-44
2022/03/19 08:40:17;;;;;;;32.93;25.10;;;6.20;99.90;;;;;;5012548;28;20514;-44
2022/03/19 08:42:51;;;;;;;35.43;25.63;;;6.30;99.90;;;;;;5012448;28;20439;-45
2022/03/19 08:45:18;;;;;;;35.03;25.33;;;6.30;99.90;;;;;;5012447;28;20448;-47
2022/03/19 08:47:45;;;;;;;38.00;25.70;;;6.30;99.90;;;;;;5011475;28;20491;-47
2022/03/19 08:50:12;;;;;;;34.90;26.63;;;6.30;99.90;;;;;;5010702;28;20447;-45
2022/03/19 08:52:39;;;;;;;35.33;25.37;;;6.40;99.90;;;;;;5010977;28;21031;-45
2022/03/19 08:55:09;;;;;;;36.63;26.07;;;6.50;99.90;;;;;;5012284;28;20482;-50
2022/03/19 08:57:36;;;;;;;33.00;25.67;;;6.60;99.90;;;;;;5011998;28;20552;-44
2022/03/19 09:00:04;;;;;;;34.47;26.33;;;6.60;99.90;;;;;;5011320;28;20584;-45
2022/03/19 09:02:31;;;;;;;32.87;24.70;;;6.80;99.90;;;;;;5012150;28;20483;-45
2022/03/19 09:04:58;;;;;;;35.30;24.83;;;6.90;99.90;;;;;;5012272;28;20481;-45
2022/03/19 09:07:25;;;;;;;33.47;24.97;;;7.10;99.90;;;;;;5012160;28;20510;-46
2022/03/19 09:09:53;;;;;;;33.40;24.00;;;7.10;99.90;;;;;;5011702;28;20475;-45
2022/03/19 09:12:25;;;;;;;41.40;25.70;;;7.10;99.90;;;;;;5011978;28;20836;-45
2022/03/19 09:14:52;;;;;;;61.70;40.10;;;7.20;99.90;;;;;;5012049;28;20543;-48
2022/03/19 09:17:19;;;;;;;38.50;26.50;;;7.20;99.90;;;;;;5011232;28;20570;-48
2022/03/19 09:19:47;;;;;;;61.27;41.93;;;7.40;99.90;;;;;;5011716;28;20545;-47
2022/03/19 09:22:14;;;;;;;32.40;23.23;;;7.50;99.90;;;;;;5012295;28;20487;-45
2022/03/19 09:24:41;;;;;;;65.40;48.23;;;7.70;99.90;;;;;;5011987;28;20539;-45
2022/03/19 09:27:08;;;;;;;70.07;53.37;;;7.70;99.90;;;;;;5012138;28;20471;-47
2022/03/19 09:29:37;;;;;;;30.07;24.10;;;7.80;99.90;;;;;;5011785;28;20542;-44
2022/03/19 09:32:04;;;;;;;58.90;48.97;;;8.00;99.90;;;;;;5011672;28;20529;-45
2022/03/19 09:34:31;;;;;;;57.37;30.90;;;8.10;99.90;;;;;;5009870;28;20470;-47
2022/03/19 09:36:58;;;;;;;66.93;49.93;;;8.10;99.90;;;;;;5011307;28;20562;-45
2022/03/19 09:39:25;;;;;;;34.90;28.37;;;8.20;99.90;;;;;;5010720;28;20478;-48
2022/03/19 09:41:53;;;;;;;41.40;33.20;;;8.30;99.90;;;;;;5011328;28;20478;-45
2022/03/19 09:44:24;;;;;;;43.70;36.13;;;8.40;99.90;;;;;;5011132;28;20425;-45
2022/03/19 09:46:53;;;;;;;46.10;32.23;;;8.30;99.90;;;;;;5011383;28;20561;-45
2022/03/19 09:49:20;;;;;;;38.10;28.93;;;8.40;99.90;;;;;;5010751;28;20551;-50
2022/03/19 09:51:53;;;;;;;48.50;35.60;;;8.70;99.90;;;;;;5011608;28;20443;-45
2022/03/19 09:54:21;;;;;;;293.73;217.40;;;8.80;99.90;;;;;;5010745;28;20450;-46
2022/03/19 09:56:47;;;;;;;716.80;509.30;;;9.50;99.90;;;;;;5010814;28;21018;-45
2022/03/19 09:59:15;;;;;;;235.53;199.37;;;9.50;99.90;;;;;;5010123;28;20473;-48
2022/03/19 10:01:42;;;;;;;79.17;58.47;;;9.70;99.90;;;;;;5010143;28;20504;-45
2022/03/19 10:04:12;;;;;;;34.67;24.10;;;10.00;99.90;;;;;;5011017;28;20475;-50
2022/03/19 10:09:42;;;;;;;31.00;23.13;;;9.70;99.90;;;;;;5006759;28;20963;-48
2022/03/19 10:12:14;;;;;;;37.47;24.50;;;9.40;99.90;;;;;;5010206;28;20962;-45
2022/03/19 10:14:41;;;;;;;84.10;35.00;;;9.50;99.90;;;;;;5008618;28;20546;-51
2022/03/19 10:17:08;;;;;;;36.80;23.87;;;9.80;99.90;;;;;;5009870;28;20555;-46
2022/03/19 10:19:49;;;;;;;44.37;26.90;;;11.80;99.90;;;;;;5009849;28;20477;-49
2022/03/19 10:22:23;;;;;;;31.17;19.97;;;13.50;99.90;;;;;;5011099;28;20554;-45
2022/03/19 10:24:57;;;;;;;52.57;30.87;;;15.20;99.90;;;;;;5009962;28;20524;-46
2022/03/19 10:27:24;;;;;;;37.93;22.97;;;16.40;98.70;;;;;;5011086;28;21047;-46
2022/03/19 10:30:03;;;;;;;38.93;25.33;;;16.90;97.00;;;;;;5011808;28;20948;-46
2022/03/19 10:32:30;;;;;;;38.30;24.93;;;16.80;95.90;;;;;;5014680;28;20930;-46
2022/03/19 10:34:58;;;;;;;38.87;24.50;;;17.70;94.30;;;;;;5014308;28;20482;-46
2022/03/19 10:37:36;;;;;;;26.57;22.70;;;;;;;;;;5013434;28;20494;-47
2022/03/19 10:40:03;;;;;;;26.03;23.27;;;19.30;82.60;;;;;;5009424;28;20956;-46
2022/03/19 10:42:37;;;;;;;29.23;23.03;;;17.00;83.60;;;;;;5014597;28;20952;-46
2022/03/19 10:45:06;;;;;;;31.60;23.63;;;15.10;88.80;;;;;;5013002;28;20517;-46
2022/03/19 10:47:40;;;;;;;24.97;16.93;;;14.40;91.50;;;;;;5013216;28;20467;-51
2022/03/19 10:50:10;;;;;;;24.83;19.73;;;13.40;90.50;;;;;;5014657;28;20446;-46
2022/03/19 10:52:37;;;;;;;19.77;16.10;;;12.80;92.10;;;;;;5014484;28;20489;-46
2022/03/19 10:55:07;;;;;;;24.70;19.80;;;12.30;91.00;;;;;;5014380;28;20471;-51
2022/03/19 10:57:35;;;;;;;24.67;20.63;;;12.10;93.30;;;;;;5014121;28;20495;-49
2022/03/19 11:00:02;;;;;;;24.30;20.30;;;11.80;93.60;;;;;;5012021;28;20526;-46
2022/03/19 11:02:31;;;;;;;27.90;19.20;;;11.70;94.10;;;;;;5013902;28;20558;-46
2022/03/19 11:04:59;;;;;;;28.70;20.10;;;11.70;94.70;;;;;;5014367;28;20868;-47
2022/03/19 11:07:32;;;;;;;21.20;16.80;;;11.70;95.10;;;;;;5013086;28;20558;-46
2022/03/19 11:10:02;;;;;;;24.17;18.30;;;11.60;93.90;;;;;;5014006;28;20458;-46
2022/03/19 11:12:32;;;;;;;23.63;17.03;;;11.60;92.60;;;;;;5014142;28;20490;-49
2022/03/19 11:14:59;;;;;;;23.27;15.77;;;11.60;93.40;;;;;;5014179;28;21004;-48
2022/03/19 11:17:30;;;;;;;26.80;20.70;;;11.60;92.70;;;;;;5013611;28;20474;-46
2022/03/19 11:20:00;;;;;;;23.00;16.60;;;11.70;92.90;;;;;;5012138;28;20453;-46
2022/03/19 11:22:30;;;;;;;18.93;15.30;;;11.60;92.40;;;;;;5012354;28;21078;-46
2022/03/19 11:25:03;;;;;;;18.00;14.23;;;11.60;91.10;;;;;;5012008;28;21038;-46
2022/03/19 11:27:33;;;;;;;21.17;13.20;;;11.70;90.20;;;;;;5012558;28;20551;-48
2022/03/19 11:30:00;;;;;;;15.80;14.10;;;11.80;91.20;;;;;;5012439;28;20486;-51
2022/03/19 11:32:27;;;;;;;18.30;14.40;;;11.70;90.20;;;;;;5011733;28;20440;-46
2022/03/19 11:34:59;;;;;;;20.13;14.60;;;11.80;89.00;;;;;;5014066;28;20471;-46
2022/03/19 11:37:49;;;;;;;22.80;16.10;;;11.70;90.30;;;;;;5013306;28;20542;-45
2022/03/19 11:40:31;;;;;;;17.13;13.73;;;11.80;91.20;;;;;;5013020;28;20455;-45
2022/03/19 11:43:01;;;;;;;19.93;14.00;;;11.80;90.10;;;;;;5013943;28;20454;-45
2022/03/19 11:45:28;;;;;;;20.37;15.43;;;12.00;90.20;;;;;;5013998;28;20447;-48
2022/03/19 11:47:55;;;;;;;20.50;15.20;;;12.10;88.40;;;;;;5013921;28;20695;-46
2022/03/19 11:50:24;;;;;;;28.17;15.77;;;12.10;90.20;;;;;;5012723;28;20865;-46
2022/03/19 11:53:08;;;;;;;19.27;15.17;;;12.20;86.60;;;;;;5011820;28;20440;-46
2022/03/19 11:55:39;;;;;;;20.13;14.87;;;12.20;88.10;;;;;;5011895;28;20455;-46
2022/03/19 11:58:13;;;;;;;20.07;13.90;;;12.30;88.10;;;;;;5011034;28;20478;-49
2022/03/19 12:00:40;;;;;;;17.67;14.43;;;12.40;85.40;;;;;;5010048;28;20565;-46
2022/03/19 12:03:10;;;;;;;19.07;14.53;;;12.30;86.30;;;;;;5010851;28;20526;-48
2022/03/19 12:05:38;;;;;;;21.43;13.90;;;12.30;84.90;;;;;;5011304;28;20470;-48
2022/03/19 12:08:09;;;;;;;27.63;16.47;;;12.30;85.00;;;;;;5011408;28;20587;-47
2022/03/19 12:10:54;;;;;;;20.73;15.17;;;12.30;85.00;;;;;;5011537;28;20554;-45
2022/03/19 12:13:42;;;;;;;23.53;14.13;;;12.30;89.70;;;;;;5011543;28;20870;-48
2022/03/19 12:16:12;;;;;;;22.20;15.17;;;12.20;87.60;;;;;;5011495;28;20459;-49
2022/03/19 12:18:48;;;;;;;17.23;15.27;;;12.10;86.80;;;;;;5011092;28;20443;-45
2022/03/19 12:21:17;;;;;;;18.87;15.03;;;12.00;85.40;;;;;;5010424;28;20482;-47
2022/03/19 12:23:55;;;;;;;23.77;15.50;;;12.10;86.30;;;;;;5010415;28;20808;-46
2022/03/19 12:26:24;;;;;;;18.33;14.00;;;12.00;85.10;;;;;;5010459;28;20907;-50
2022/03/19 12:28:58;;;;;;;18.70;14.00;;;12.10;85.90;;;;;;5012627;28;20475;-47
2022/03/19 12:31:31;;;;;;;15.70;13.40;;;12.20;83.90;;;;;;5012766;28;20469;-45
2022/03/19 12:33:58;;;;;;;15.57;13.10;;;12.10;83.10;;;;;;5012840;28;20439;-46
2022/03/19 12:36:25;;;;;;;20.07;13.97;;;12.10;81.60;;;;;;5012599;28;20506;-45
2022/03/19 12:38:53;;;;;;;17.03;12.63;;;12.10;87.30;;;;;;5012981;28;20948;-51
2022/03/19 12:41:26;;;;;;;17.33;12.60;;;12.10;83.80;;;;;;5011593;28;20557;-47
2022/03/19 12:43:54;;;;;;;20.00;12.83;;;12.40;84.60;;;;;;5011532;28;20449;-47
2022/03/19 12:46:25;;;;;;;20.43;13.80;;;12.20;80.40;;;;;;5010726;28;20463;-48
2022/03/19 12:49:02;;;;;;;17.97;12.43;;;12.10;79.80;;;;;;5010837;28;20451;-48
2022/03/19 12:51:29;;;;;;;16.87;11.73;;;12.20;83.60;;;;;;5010599;28;20447;-48
2022/03/19 12:53:58;;;;;;;13.87;11.30;;;12.30;80.90;;;;;;5009551;28;20467;-47
2022/03/19 12:56:27;;;;;;;16.23;12.87;;;12.30;78.70;;;;;;5009920;28;20562;-49
2022/03/19 12:58:57;;;;;;;15.17;13.13;;;12.30;81.40;;;;;;5010015;28;20447;-46